EmailTwitter


Observations de surface / France / LFBP (07610)

Régions: Québec | Canada | États-Unis | Europe | France | UK | Ailleurs
Station
Affichage
Infos & localisation pour LFBP (07610) | Aide pour décoder les METARs

Observations prises le 2020-07-16 à 01H00 UTC à PONT-LONG-UZEIN/, FR (LFBP)

Température: 13.0 Celsius

Point de rosée: 12.0 Celsius

Humidité relative: 94%

Vents: Sud-est à 6 km/h ou 3 noeuds.

Pression au niveau moyen de la mer: 102.30 kilopascals.

Observation METAR:

LFBP 160100Z AUTO 14003KT CAVOK 13/12 Q1023 TEMPO BKN012=